Time;durP1;ratioP1;P1;durP2;ratioP2;P2;SDS_P1;SDS_P2;PMS_P1;PMS_P2;Temp;Humidity;BMP_temperature;BMP_pressure;BME280_temperature;BME280_humidity;BME280_pressure;Samples;Min_cycle;Max_cycle;Signal;HPM_P1;HPM_P2
2020/12/12 00:01:49;;;;;;;7.70;4.75;;;10.80;99.90;;;;;;5085573;28;20052;-66
2020/12/12 00:04:17;;;;;;;9.50;5.35;;;10.80;99.90;;;;;;5093888;28;20052;-66
2020/12/12 00:06:44;;;;;;;11.80;7.15;;;10.80;99.90;;;;;;5075739;28;20499;-66
2020/12/12 00:09:14;;;;;;;11.98;6.53;;;10.80;99.90;;;;;;5091877;28;20535;-66
2020/12/12 00:11:42;;;;;;;15.85;6.05;;;10.90;99.90;;;;;;5075645;28;20659;-66
2020/12/12 00:14:10;;;;;;;13.48;6.43;;;10.90;99.90;;;;;;5094072;28;20401;-65
2020/12/12 00:16:38;;;;;;;15.00;5.90;;;10.90;99.90;;;;;;5093111;28;20109;-65
2020/12/12 00:19:05;;;;;;;16.10;7.38;;;10.90;99.90;;;;;;5093039;28;20495;-65
2020/12/12 00:21:33;;;;;;;14.27;5.88;;;10.90;99.90;;;;;;5058504;28;20051;-66
2020/12/12 00:24:03;;;;;;;10.38;5.90;;;10.90;99.90;;;;;;5075515;28;20549;-66
2020/12/12 00:26:30;;;;;;;15.82;7.47;;;11.00;99.90;;;;;;5072136;28;20527;-65
2020/12/12 00:28:58;;;;;;;13.00;6.72;;;10.90;99.90;;;;;;5091569;28;20052;-66
2020/12/12 00:31:25;;;;;;;12.60;6.82;;;11.00;99.90;;;;;;5092283;28;20437;-66
2020/12/12 00:33:53;;;;;;;14.88;7.25;;;11.00;99.90;;;;;;5091995;28;20043;-66
2020/12/12 00:36:20;;;;;;;16.27;7.80;;;10.90;99.90;;;;;;5091869;28;20135;-66
2020/12/12 00:38:48;;;;;;;20.70;7.75;;;10.90;99.90;;;;;;5074793;28;20060;-65
2020/12/12 00:41:15;;;;;;;16.83;7.55;;;10.90;99.90;;;;;;5092150;28;20571;-65
2020/12/12 00:43:43;;;;;;;11.90;6.97;;;10.90;99.90;;;;;;5092635;28;20044;-66
2020/12/12 00:46:10;;;;;;;13.40;6.90;;;10.80;99.90;;;;;;5071732;28;20044;-66
2020/12/12 00:48:38;;;;;;;13.05;6.93;;;10.70;99.90;;;;;;5067413;28;20064;-64
2020/12/12 00:51:06;;;;;;;15.30;7.47;;;10.70;99.90;;;;;;5071186;28;20056;-66
2020/12/12 00:53:33;;;;;;;12.77;6.47;;;10.70;99.90;;;;;;5089304;28;20117;-66
2020/12/12 00:56:01;;;;;;;12.98;7.20;;;10.70;99.90;;;;;;5091474;28;20063;-66
2020/12/12 00:58:29;;;;;;;11.85;7.05;;;10.60;99.90;;;;;;5090995;28;20418;-66
2020/12/12 01:00:57;;;;;;;17.13;6.60;;;10.60;99.90;;;;;;5092503;28;20582;-65
2020/12/12 01:03:24;;;;;;;16.70;7.60;;;10.60;99.90;;;;;;5091428;28;20037;-66
2020/12/12 01:05:52;;;;;;;12.85;5.93;;;10.60;99.90;;;;;;5091008;28;20036;-64
2020/12/12 01:08:20;;;;;;;11.43;5.88;;;10.50;99.90;;;;;;5091996;28;20054;-65
2020/12/12 01:10:47;;;;;;;11.00;5.05;;;10.50;99.90;;;;;;5091134;28;20138;-66
2020/12/12 01:13:15;;;;;;;16.73;5.32;;;10.50;99.90;;;;;;5092193;28;20040;-65
2020/12/12 01:15:42;;;;;;;13.07;4.93;;;10.50;99.90;;;;;;5092264;28;20060;-64
2020/12/12 01:18:10;;;;;;;13.43;5.90;;;10.50;99.90;;;;;;5091732;28;20055;-65
2020/12/12 01:20:39;;;;;;;11.27;5.22;;;10.50;99.90;;;;;;5090873;28;20052;-66
2020/12/12 01:23:08;;;;;;;12.02;5.47;;;10.60;99.90;;;;;;5092710;28;20040;-65
2020/12/12 01:25:37;;;;;;;13.02;5.90;;;10.60;99.90;;;;;;5092001;28;20048;-65
2020/12/12 01:28:05;;;;;;;10.80;5.97;;;10.60;99.90;;;;;;5073927;28;20085;-65
2020/12/12 01:30:36;;;;;;;12.60;5.90;;;10.70;99.90;;;;;;5074064;28;20047;-65
2020/12/12 01:33:04;;;;;;;8.40;5.55;;;10.80;99.90;;;;;;5090377;28;20056;-65
2020/12/12 01:35:31;;;;;;;10.52;5.78;;;10.80;99.90;;;;;;5092199;28;20415;-65
2020/12/12 01:37:59;;;;;;;10.20;5.72;;;10.80;99.90;;;;;;5071541;28;20049;-65
2020/12/12 01:40:26;;;;;;;9.57;4.78;;;10.70;99.90;;;;;;5090495;28;20048;-66
2020/12/12 01:42:54;;;;;;;14.10;6.35;;;10.60;99.90;;;;;;5090249;28;20052;-65
2020/12/12 01:45:21;;;;;;;10.20;4.97;;;10.50;99.90;;;;;;5091900;28;20071;-66
2020/12/12 01:47:49;;;;;;;15.20;4.57;;;10.40;99.90;;;;;;5091081;28;20150;-65
2020/12/12 01:50:17;;;;;;;14.15;5.63;;;10.40;99.90;;;;;;5083400;28;20067;-65
2020/12/12 01:52:50;;;;;;;8.90;5.65;;;10.30;99.90;;;;;;5091657;28;20086;-66
2020/12/12 01:55:20;;;;;;;6.82;3.67;;;10.30;99.90;;;;;;5065330;28;20097;-66
2020/12/12 01:57:52;;;;;;;14.90;4.50;;;10.30;99.90;;;;;;5091305;28;20072;-66
2020/12/12 02:00:22;;;;;;;9.88;4.38;;;10.30;99.90;;;;;;5090214;28;20044;-65
2020/12/12 02:02:54;;;;;;;9.27;4.35;;;10.20;99.90;;;;;;5089994;28;20052;-66
2020/12/12 02:05:39;;;;;;;7.88;4.88;;;10.30;99.90;;;;;;5082087;28;20068;-66
2020/12/12 02:08:15;;;;;;;9.85;3.97;;;10.20;99.90;;;;;;5090882;28;20131;-66
2020/12/12 02:10:46;;;;;;;12.45;5.70;;;10.20;99.90;;;;;;5090446;28;20055;-65
2020/12/12 02:13:15;;;;;;;11.85;4.65;;;10.20;99.90;;;;;;5089642;28;20040;-65
2020/12/12 02:15:43;;;;;;;8.75;4.70;;;10.20;99.90;;;;;;5090011;28;20060;-66
2020/12/12 02:18:20;;;;;;;7.22;4.03;;;10.20;99.90;;;;;;5070389;28;20044;-65
2020/12/12 02:20:58;;;;;;;13.52;4.20;;;10.20;99.90;;;;;;5091888;28;20055;-65
2020/12/12 02:23:26;;;;;;;8.80;4.82;;;10.30;99.90;;;;;;5090977;28;20040;-66
2020/12/12 02:25:56;;;;;;;11.65;4.50;;;10.30;99.90;;;;;;5069538;28;20404;-66
2020/12/12 02:28:34;;;;;;;7.63;3.28;;;10.30;99.90;;;;;;5090123;28;20097;-64
2020/12/12 02:31:01;;;;;;;9.90;4.70;;;10.30;99.90;;;;;;5053135;28;20105;-65
2020/12/12 02:33:29;;;;;;;9.63;5.20;;;10.30;99.90;;;;;;5090770;28;20064;-65
2020/12/12 02:35:57;;;;;;;9.80;5.28;;;10.30;99.90;;;;;;5069576;28;20045;-65
2020/12/12 02:38:25;;;;;;;6.75;4.30;;;10.30;99.90;;;;;;5088021;28;20048;-66
2020/12/12 02:40:52;;;;;;;6.55;4.55;;;10.30;99.90;;;;;;5068989;28;20059;-66
2020/12/12 02:43:20;;;;;;;11.45;4.97;;;10.30;99.90;;;;;;5088732;28;20048;-64
2020/12/12 02:45:48;;;;;;;7.63;3.92;;;10.30;99.90;;;;;;5089395;28;20071;-65
2020/12/12 02:48:16;;;;;;;8.02;3.08;;;10.30;99.90;;;;;;5089893;28;20548;-66
2020/12/12 02:50:44;;;;;;;8.10;3.97;;;10.30;99.90;;;;;;5090399;28;20048;-66
2020/12/12 02:53:11;;;;;;;8.13;4.07;;;10.20;99.90;;;;;;5090378;28;20048;-65
2020/12/12 02:55:39;;;;;;;7.15;3.08;;;10.20;99.90;;;;;;5089083;28;20071;-65
2020/12/12 02:58:07;;;;;;;9.82;3.75;;;10.00;99.90;;;;;;5088656;28;20122;-66
2020/12/12 03:00:34;;;;;;;6.10;3.45;;;10.00;99.90;;;;;;5089169;28;20086;-65
2020/12/12 03:03:02;;;;;;;8.52;3.17;;;9.90;99.90;;;;;;5089135;28;20418;-66
2020/12/12 03:05:29;;;;;;;6.43;3.40;;;9.90;99.90;;;;;;5088894;28;20043;-65
2020/12/12 03:07:57;;;;;;;8.13;3.90;;;9.90;99.90;;;;;;5090019;28;20565;-65
2020/12/12 03:10:24;;;;;;;12.00;4.38;;;9.80;99.90;;;;;;5088631;28;20127;-66
2020/12/12 03:12:52;;;;;;;6.95;3.20;;;9.90;99.90;;;;;;5089953;28;20048;-66
2020/12/12 03:15:19;;;;;;;9.20;2.83;;;9.90;99.90;;;;;;5072011;28;20044;-65
2020/12/12 03:17:47;;;;;;;14.35;5.05;;;9.90;99.90;;;;;;5087191;28;20044;-65
2020/12/12 03:20:15;;;;;;;6.28;3.15;;;9.90;99.90;;;;;;5089154;28;20050;-66
2020/12/12 03:22:42;;;;;;;11.35;3.92;;;9.90;99.90;;;;;;5090087;28;20048;-65
2020/12/12 03:25:10;;;;;;;9.38;3.95;;;9.90;99.90;;;;;;5089546;28;20079;-65
2020/12/12 03:27:37;;;;;;;6.30;3.03;;;9.90;99.90;;;;;;5089895;28;20105;-65
2020/12/12 03:30:05;;;;;;;7.50;3.25;;;9.90;99.90;;;;;;5090164;28;20510;-65
2020/12/12 03:32:32;;;;;;;15.15;3.55;;;9.90;99.90;;;;;;5089765;28;20044;-65
2020/12/12 03:35:00;;;;;;;7.43;3.85;;;9.90;99.90;;;;;;5088766;28;20044;-65
2020/12/12 03:37:28;;;;;;;10.75;4.35;;;9.90;99.90;;;;;;5089323;28;20068;-64
2020/12/12 03:39:55;;;;;;;8.73;4.45;;;9.90;99.90;;;;;;5089602;28;20055;-66
2020/12/12 03:42:23;;;;;;;8.15;3.65;;;9.90;99.90;;;;;;5090145;28;20551;-66
2020/12/12 03:44:50;;;;;;;15.27;4.78;;;9.90;99.90;;;;;;5089740;28;20040;-65
2020/12/12 03:47:17;;;;;;;12.20;4.45;;;9.90;99.90;;;;;;5088477;28;20047;-65
2020/12/12 03:49:45;;;;;;;11.10;4.60;;;9.90;99.90;;;;;;5087963;28;20044;-64
2020/12/12 03:52:15;;;;;;;15.93;3.88;;;10.00;99.90;;;;;;5068395;28;20060;-65
2020/12/12 03:54:43;;;;;;;7.68;4.43;;;10.00;99.90;;;;;;5087121;28;20055;-66
2020/12/12 03:57:11;;;;;;;8.75;3.80;;;10.00;99.90;;;;;;5088353;28;20048;-66
2020/12/12 03:59:39;;;;;;;9.35;4.15;;;9.90;99.90;;;;;;5087947;28;20052;-66
2020/12/12 04:02:06;;;;;;;11.18;4.07;;;9.90;99.90;;;;;;5089049;28;20755;-65
2020/12/12 04:04:34;;;;;;;10.98;4.32;;;9.90;99.90;;;;;;5088922;28;20388;-65
2020/12/12 04:07:01;;;;;;;11.43;4.75;;;9.90;99.90;;;;;;5088293;28;20047;-65
2020/12/12 04:09:28;;;;;;;9.95;4.40;;;9.90;99.90;;;;;;5088224;28;20506;-65
2020/12/12 04:11:56;;;;;;;8.15;4.70;;;9.90;99.90;;;;;;5088429;28;20052;-65
2020/12/12 04:14:23;;;;;;;9.73;5.10;;;9.90;99.90;;;;;;5088395;28;20048;-65
2020/12/12 04:16:51;;;;;;;7.72;4.25;;;9.90;99.90;;;;;;5089617;28;20059;-65
2020/12/12 04:19:19;;;;;;;9.52;4.68;;;9.80;99.90;;;;;;5087773;28;20048;-66
2020/12/12 04:21:46;;;;;;;12.70;4.60;;;9.80;99.90;;;;;;5088120;28;20048;-66
2020/12/12 04:24:14;;;;;;;7.72;3.97;;;9.80;99.90;;;;;;5091744;28;20052;-65
2020/12/12 04:26:41;;;;;;;11.82;5.18;;;9.80;99.90;;;;;;5093231;28;20068;-66
2020/12/12 04:29:09;;;;;;;12.48;5.63;;;9.70;99.90;;;;;;5084988;28;20048;-65
2020/12/12 04:31:37;;;;;;;12.20;4.97;;;9.70;99.90;;;;;;5092111;28;20044;-65
2020/12/12 04:34:06;;;;;;;8.30;4.82;;;9.70;99.90;;;;;;5091991;28;20051;-65
2020/12/12 04:36:34;;;;;;;5.40;3.25;;;9.80;99.90;;;;;;5091770;28;20101;-65
2020/12/12 04:39:02;;;;;;;9.77;4.63;;;9.80;99.90;;;;;;5092189;28;20085;-65
2020/12/12 04:41:31;;;;;;;11.15;4.60;;;9.80;99.90;;;;;;5075046;28;20059;-64
2020/12/12 04:43:59;;;;;;;12.40;4.65;;;9.80;99.90;;;;;;5092947;28;20060;-66
2020/12/12 04:46:28;;;;;;;18.80;6.03;;;9.70;99.90;;;;;;5091532;28;20135;-66
2020/12/12 04:48:56;;;;;;;12.20;6.25;;;9.70;99.90;;;;;;5090917;28;20063;-65
2020/12/12 04:51:25;;;;;;;9.40;3.92;;;9.70;99.90;;;;;;5074883;28;20051;-66
2020/12/12 04:53:57;;;;;;;8.23;5.20;;;9.60;99.90;;;;;;5091361;28;20055;-64
2020/12/12 04:56:26;;;;;;;11.52;4.63;;;9.50;99.90;;;;;;5091286;28;20055;-65
2020/12/12 04:58:54;;;;;;;14.38;4.55;;;9.50;99.90;;;;;;5091855;28;20052;-65
2020/12/12 05:01:21;;;;;;;13.70;4.72;;;9.50;99.90;;;;;;5091407;28;20070;-65
2020/12/12 05:03:54;;;;;;;12.00;3.97;;;9.50;99.90;;;;;;5092418;28;20126;-64
2020/12/12 05:06:27;;;;;;;9.63;3.88;;;9.50;99.90;;;;;;5091506;28;20414;-65
2020/12/12 05:08:54;;;;;;;10.65;4.30;;;9.50;99.90;;;;;;5090660;28;20499;-65
2020/12/12 05:11:25;;;;;;;12.48;3.38;;;9.60;99.90;;;;;;5084437;28;20080;-65
2020/12/12 05:13:53;;;;;;;12.23;6.38;;;9.60;99.90;;;;;;5074563;28;20056;-65
2020/12/12 05:16:20;;;;;;;13.68;4.55;;;9.70;99.90;;;;;;5090796;28;20059;-65
2020/12/12 05:18:50;;;;;;;13.02;6.63;;;9.80;99.90;;;;;;5073820;28;20036;-67
2020/12/12 05:21:18;;;;;;;25.13;11.63;;;9.90;99.90;;;;;;5091819;28;20055;-65
2020/12/12 05:23:46;;;;;;;20.50;9.07;;;9.90;99.90;;;;;;5091910;28;20104;-65
2020/12/12 05:26:14;;;;;;;27.85;12.43;;;9.90;99.90;;;;;;5072440;28;20131;-65
2020/12/12 05:28:42;;;;;;;16.05;6.63;;;10.00;99.90;;;;;;5091618;28;20047;-66
2020/12/12 05:31:09;;;;;;;10.85;5.05;;;10.10;99.90;;;;;;5091559;28;20060;-66
2020/12/12 05:33:37;;;;;;;7.97;4.07;;;10.10;99.90;;;;;;5090334;28;20388;-65
2020/12/12 05:36:04;;;;;;;9.13;5.25;;;10.10;99.90;;;;;;5073394;28;20184;-64
2020/12/12 05:38:32;;;;;;;8.10;4.47;;;10.20;99.90;;;;;;5091338;28;20127;-65
2020/12/12 05:40:59;;;;;;;12.10;5.72;;;10.20;99.90;;;;;;5092079;28;20076;-66
2020/12/12 05:43:34;;;;;;;10.27;4.43;;;10.20;99.90;;;;;;5091662;28;20040;-65
2020/12/12 05:46:03;;;;;;;13.10;4.88;;;10.20;99.90;;;;;;5091679;28;20525;-65
2020/12/12 05:48:30;;;;;;;13.52;5.18;;;10.10;99.90;;;;;;5089980;28;20040;-66
2020/12/12 05:50:58;;;;;;;10.15;4.68;;;10.00;99.90;;;;;;5091296;28;20097;-66
2020/12/12 05:53:25;;;;;;;11.43;4.15;;;9.90;99.90;;;;;;5091274;28;20116;-66
2020/12/12 05:55:55;;;;;;;13.05;5.68;;;9.90;99.90;;;;;;5091246;28;20127;-66
2020/12/12 05:58:23;;;;;;;12.35;5.15;;;10.00;99.90;;;;;;5090781;28;20067;-66
2020/12/12 06:00:53;;;;;;;11.68;5.68;;;10.00;99.90;;;;;;5090293;28;20525;-65
2020/12/12 06:03:33;;;;;;;16.52;6.18;;;10.00;99.90;;;;;;5091246;28;20047;-65
2020/12/12 06:06:07;;;;;;;13.07;5.20;;;10.00;99.90;;;;;;5090211;28;20040;-66
2020/12/12 06:08:37;;;;;;;7.68;3.90;;;10.10;99.90;;;;;;5089640;28;20181;-65
2020/12/12 06:11:08;;;;;;;11.48;4.30;;;10.10;99.90;;;;;;5090076;28;20058;-65
2020/12/12 06:13:37;;;;;;;11.38;5.75;;;10.20;99.90;;;;;;5090948;28;20142;-66
2020/12/12 06:16:07;;;;;;;11.73;5.75;;;10.30;99.90;;;;;;5089921;28;20052;-66
2020/12/12 06:18:44;;;;;;;10.80;5.47;;;10.30;99.90;;;;;;5090489;28;20105;-66
2020/12/12 06:21:12;;;;;;;8.07;3.88;;;10.40;99.90;;;;;;5089772;28;20040;-65
2020/12/12 06:23:41;;;;;;;7.78;4.32;;;10.50;99.90;;;;;;5089809;28;20044;-66
2020/12/12 06:26:10;;;;;;;11.52;5.35;;;10.50;99.90;;;;;;5090421;28;20066;-66
2020/12/12 06:28:43;;;;;;;26.27;9.90;;;10.60;99.90;;;;;;5088927;28;20097;-66
2020/12/12 06:31:12;;;;;;;46.88;16.40;;;10.70;99.90;;;;;;5090037;28;20044;-66
2020/12/12 06:33:53;;;;;;;39.22;11.68;;;10.80;99.90;;;;;;5072046;28;20408;-65
2020/12/12 06:36:26;;;;;;;20.65;9.25;;;10.80;99.90;;;;;;5089274;28;20138;-65
2020/12/12 06:39:18;;;;;;;14.82;7.13;;;10.80;99.90;;;;;;5089119;28;20054;-66
2020/12/12 06:41:48;;;;;;;6.78;4.55;;;10.90;99.90;;;;;;5089226;28;20518;-65
2020/12/12 06:44:37;;;;;;;15.57;5.00;;;10.90;99.90;;;;;;5090854;28;20040;-67
2020/12/12 06:47:06;;;;;;;11.52;3.75;;;11.00;99.90;;;;;;5071850;28;20050;-65
2020/12/12 06:49:34;;;;;;;10.07;4.60;;;11.00;99.90;;;;;;5089662;28;20060;-65
2020/12/12 06:52:04;;;;;;;24.33;13.07;;;10.90;99.90;;;;;;5089156;28;20067;-66
2020/12/12 06:54:31;;;;;;;24.27;13.52;;;11.00;99.90;;;;;;5088959;28;20465;-65
2020/12/12 06:57:02;;;;;;;16.38;8.40;;;11.00;99.90;;;;;;5073295;28;20511;-64
2020/12/12 06:59:36;;;;;;;12.20;4.93;;;10.90;99.90;;;;;;5088473;28;20537;-65
2020/12/12 07:02:07;;;;;;;14.23;5.20;;;10.90;99.90;;;;;;5090484;28;20051;-65
2020/12/12 07:04:37;;;;;;;12.80;6.10;;;11.00;99.90;;;;;;5090058;28;20155;-66
2020/12/12 07:07:10;;;;;;;13.18;5.95;;;11.00;99.90;;;;;;5090471;28;20052;-65
2020/12/12 07:09:39;;;;;;;11.88;6.82;;;11.10;99.90;;;;;;5088564;28;20513;-66
2020/12/12 07:12:08;;;;;;;9.05;5.28;;;11.20;99.90;;;;;;5090066;28;20048;-65
2020/12/12 07:15:08;;;;;;;9.10;3.85;;;11.20;99.90;;;;;;5089961;28;20052;-65
2020/12/12 07:17:36;;;;;;;7.50;3.95;;;11.20;99.90;;;;;;5087631;28;20054;-65
2020/12/12 07:20:03;;;;;;;13.95;4.03;;;11.20;99.90;;;;;;5088194;28;20046;-65
2020/12/12 07:22:32;;;;;;;5.70;3.28;;;11.10;99.90;;;;;;5090115;28;20521;-65
2020/12/12 07:25:00;;;;;;;13.38;5.47;;;11.20;99.90;;;;;;5082027;28;20556;-65
2020/12/12 07:27:28;;;;;;;34.65;15.27;;;11.40;99.90;;;;;;5090367;28;20066;-65
2020/12/12 07:29:56;;;;;;;10.45;4.38;;;11.50;99.90;;;;;;5089743;28;20051;-65
2020/12/12 07:32:26;;;;;;;6.75;4.07;;;11.60;99.90;;;;;;5089916;28;20428;-65
2020/12/12 07:35:00;;;;;;;5.82;2.95;;;11.80;99.90;;;;;;5071158;28;20063;-65
2020/12/12 07:37:28;;;;;;;9.18;3.05;;;11.80;99.90;;;;;;5088728;28;20074;-65
2020/12/12 07:39:55;;;;;;;6.00;3.10;;;11.90;99.90;;;;;;5088140;28;20040;-65
2020/12/12 07:42:24;;;;;;;7.95;4.20;;;11.90;99.90;;;;;;5090049;28;20048;-63
2020/12/12 07:45:06;;;;;;;8.00;3.17;;;11.90;99.90;;;;;;5088403;28;20123;-65
2020/12/12 07:47:34;;;;;;;9.48;2.47;;;12.00;99.90;;;;;;5088959;28;20388;-65
2020/12/12 07:50:05;;;;;;;8.20;2.90;;;12.20;99.90;;;;;;5088194;28;20079;-64
2020/12/12 07:52:33;;;;;;;7.00;3.03;;;12.40;99.90;;;;;;5088340;28;20060;-65
2020/12/12 07:55:12;;;;;;;11.05;3.67;;;12.60;99.90;;;;;;5071828;28;20080;-65
2020/12/12 07:57:43;;;;;;;10.93;3.05;;;12.80;99.90;;;;;;5089916;28;20056;-64
2020/12/12 08:00:12;;;;;;;10.23;4.00;;;12.90;99.90;;;;;;5092487;28;20047;-67
2020/12/12 08:02:40;;;;;;;4.93;2.67;;;13.00;99.90;;;;;;5093891;28;20056;-67
2020/12/12 08:05:08;;;;;;;9.77;3.03;;;13.00;99.90;;;;;;5093067;28;20044;-67
2020/12/12 08:07:36;;;;;;;5.40;2.85;;;13.10;99.90;;;;;;5092262;28;20052;-67
2020/12/12 08:10:08;;;;;;;6.03;2.53;;;13.20;99.90;;;;;;5093496;28;20055;-64
2020/12/12 08:12:36;;;;;;;4.05;1.80;;;13.20;99.90;;;;;;5093494;28;20060;-65
2020/12/12 08:15:08;;;;;;;5.30;3.03;;;13.20;99.90;;;;;;5091906;28;20054;-65
2020/12/12 08:17:36;;;;;;;9.50;3.85;;;13.20;99.90;;;;;;5093448;28;20133;-65
2020/12/12 08:20:04;;;;;;;8.73;2.50;;;13.30;99.90;;;;;;5091825;28;20131;-64
2020/12/12 08:22:35;;;;;;;334.70;181.02;;;13.30;99.90;;;;;;5091639;28;20105;-64
2020/12/12 08:25:07;;;;;;;30.40;19.50;;;13.20;99.90;;;;;;5092847;28;20101;-66
2020/12/12 08:27:35;;;;;;;5.70;2.80;;;13.30;99.90;;;;;;5075472;28;20061;-65
2020/12/12 08:30:06;;;;;;;8.23;2.70;;;13.30;99.90;;;;;;5092730;28;20522;-65
2020/12/12 08:32:37;;;;;;;7.50;1.95;;;13.40;99.90;;;;;;5092550;28;20373;-65
2020/12/12 08:35:14;;;;;;;7.60;2.30;;;13.60;99.90;;;;;;5091179;28;20058;-64
2020/12/12 08:38:05;;;;;;;7.28;2.95;;;13.70;99.90;;;;;;5092284;28;20052;-64
2020/12/12 08:40:48;;;;;;;6.80;2.72;;;13.90;99.90;;;;;;5084998;28;20032;-65
2020/12/12 08:43:17;;;;;;;6.60;2.30;;;14.10;99.90;;;;;;5074120;28;20508;-65
2020/12/12 08:45:55;;;;;;;8.18;4.45;;;14.10;99.90;;;;;;5092894;28;20051;-66
2020/12/12 08:48:36;;;;;;;6.95;3.40;;;14.10;99.90;;;;;;5104764;27;20106;-67
2020/12/12 08:51:06;;;;;;;9.32;3.25;;;14.10;99.90;;;;;;5089931;28;20158;-65
2020/12/12 08:53:35;;;;;;;7.22;2.58;;;14.10;99.90;;;;;;5091036;28;20043;-65
2020/12/12 08:56:09;;;;;;;6.07;3.33;;;14.00;99.90;;;;;;5089737;28;20111;-65
2020/12/12 08:58:45;;;;;;;13.95;6.70;;;13.90;99.90;;;;;;5090762;28;20556;-65
2020/12/12 09:01:24;;;;;;;15.63;6.78;;;13.70;99.90;;;;;;5100141;28;20443;-65
2020/12/12 09:03:55;;;;;;;9.82;3.90;;;13.60;99.90;;;;;;5089869;28;20122;-65
2020/12/12 09:06:25;;;;;;;16.25;4.75;;;13.60;99.90;;;;;;5091075;28;20507;-65
2020/12/12 09:09:09;;;;;;;15.00;5.10;;;13.60;99.90;;;;;;5071191;28;20519;-65
2020/12/12 09:11:43;;;;;;;7.78;5.20;;;13.60;99.90;;;;;;5091704;28;20043;-65
2020/12/12 09:14:12;;;;;;;22.58;4.78;;;13.60;99.90;;;;;;5072053;28;20046;-65
2020/12/12 09:17:01;;;;;;;7.30;2.97;;;13.60;99.90;;;;;;5091908;28;20052;-65
2020/12/12 09:19:29;;;;;;;6.93;3.75;;;13.50;99.90;;;;;;5090839;28;20127;-66
2020/12/12 09:21:58;;;;;;;6.18;2.47;;;13.60;99.90;;;;;;5091222;28;20036;-66
2020/12/12 09:24:26;;;;;;;11.25;3.85;;;13.60;99.90;;;;;;5091538;28;20044;-65
2020/12/12 09:26:57;;;;;;;8.88;4.30;;;13.60;99.90;;;;;;5074347;28;20046;-65
2020/12/12 09:29:27;;;;;;;5.85;2.97;;;13.60;99.90;;;;;;5090055;28;20052;-65
2020/12/12 09:31:56;;;;;;;9.35;4.68;;;13.70;99.90;;;;;;5091031;28;20059;-65
2020/12/12 09:34:25;;;;;;;13.75;5.55;;;13.80;99.90;;;;;;5092146;28;20079;-66
2020/12/12 09:36:53;;;;;;;9.10;4.47;;;13.80;99.90;;;;;;5090797;28;20052;-65
2020/12/12 09:39:24;;;;;;;7.22;3.33;;;13.80;99.90;;;;;;5089703;28;20048;-66
2020/12/12 09:41:58;;;;;;;14.38;3.30;;;13.80;99.90;;;;;;5091851;28;20055;-65
2020/12/12 09:44:31;;;;;;;6.75;3.50;;;13.80;99.90;;;;;;5091204;28;20062;-65
2020/12/12 09:46:59;;;;;;;8.15;2.95;;;13.90;99.90;;;;;;5091479;28;20048;-65
2020/12/12 09:49:32;;;;;;;7.18;2.95;;;13.90;99.90;;;;;;5072449;28;20124;-63
2020/12/12 09:52:00;;;;;;;9.15;4.40;;;14.00;99.90;;;;;;5090053;28;20063;-65
2020/12/12 09:54:27;;;;;;;9.95;5.22;;;14.00;99.90;;;;;;5090330;28;20067;-65
2020/12/12 09:56:55;;;;;;;6.80;4.30;;;14.10;99.90;;;;;;5073551;28;20048;-65
2020/12/12 09:59:23;;;;;;;9.52;5.00;;;14.10;99.90;;;;;;5090735;28;20403;-66
2020/12/12 10:01:50;;;;;;;8.23;3.60;;;14.10;99.90;;;;;;5091844;28;20398;-65
2020/12/12 10:04:18;;;;;;;8.80;4.88;;;14.10;99.90;;;;;;5091390;28;20202;-66
2020/12/12 10:06:46;;;;;;;11.52;4.70;;;14.10;99.90;;;;;;5081886;28;20189;-65
2020/12/12 10:09:13;;;;;;;7.25;4.30;;;14.10;99.90;;;;;;5089637;28;20053;-65
2020/12/12 10:11:43;;;;;;;12.70;4.93;;;14.20;99.90;;;;;;5073250;28;20113;-66
2020/12/12 10:14:13;;;;;;;10.07;4.50;;;14.30;99.90;;;;;;5073691;28;20113;-65
2020/12/12 10:16:43;;;;;;;10.93;4.00;;;14.40;99.90;;;;;;5090125;28;20396;-63
2020/12/12 10:19:10;;;;;;;9.07;4.70;;;14.20;99.90;;;;;;5089134;28;20491;-66
2020/12/12 10:21:38;;;;;;;14.25;6.90;;;14.30;99.90;;;;;;5090867;28;20059;-65
2020/12/12 10:24:06;;;;;;;21.98;10.82;;;14.20;99.90;;;;;;5091264;28;20410;-65
2020/12/12 10:26:33;;;;;;;16.92;8.48;;;14.10;99.90;;;;;;5090390;28;20079;-66
2020/12/12 10:29:01;;;;;;;20.88;9.60;;;14.20;99.90;;;;;;5090471;28;20462;-65
2020/12/12 10:31:28;;;;;;;17.00;9.95;;;14.30;99.90;;;;;;5090852;28;20055;-65
2020/12/12 10:33:58;;;;;;;17.48;9.65;;;14.40;99.90;;;;;;5090762;28;20647;-66
2020/12/12 10:36:28;;;;;;;13.73;7.60;;;14.40;99.90;;;;;;5073218;28;20044;-66
2020/12/12 10:38:56;;;;;;;15.15;7.50;;;14.40;99.90;;;;;;5080915;28;20055;-65
2020/12/12 10:41:28;;;;;;;15.23;6.57;;;14.30;99.90;;;;;;5089521;28;20514;-65
2020/12/12 10:43:55;;;;;;;15.05;7.80;;;14.40;99.90;;;;;;5056661;28;20558;-65
2020/12/12 10:46:23;;;;;;;16.40;7.15;;;14.40;99.90;;;;;;5072337;28;20043;-63
2020/12/12 10:48:51;;;;;;;7.32;3.90;;;14.50;99.90;;;;;;5088748;28;20410;-66
2020/12/12 10:51:18;;;;;;;8.45;4.82;;;14.40;99.90;;;;;;5090872;28;20064;-66
2020/12/12 10:53:46;;;;;;;9.27;4.45;;;14.50;99.90;;;;;;5089132;28;20052;-65
2020/12/12 10:56:13;;;;;;;7.82;4.20;;;14.60;99.90;;;;;;5090579;28;20055;-66
2020/12/12 10:58:42;;;;;;;8.57;4.72;;;14.70;99.90;;;;;;5089872;28;20565;-64
2020/12/12 11:01:09;;;;;;;9.90;5.13;;;14.70;99.90;;;;;;5090411;28;20054;-66
2020/12/12 11:03:37;;;;;;;9.85;5.72;;;14.80;99.90;;;;;;5090362;28;20101;-65
2020/12/12 11:06:07;;;;;;;12.85;5.53;;;14.80;99.90;;;;;;5089021;28;20055;-65
2020/12/12 11:08:35;;;;;;;9.55;3.83;;;14.80;99.90;;;;;;5072008;28;20570;-65
2020/12/12 11:11:02;;;;;;;9.68;4.75;;;14.90;99.90;;;;;;5089100;28;20059;-65
2020/12/12 11:13:40;;;;;;;15.60;8.27;;;14.90;99.90;;;;;;5089025;28;20071;-66
2020/12/12 11:16:24;;;;;;;15.43;9.30;;;15.00;99.90;;;;;;5083532;28;20633;-64
2020/12/12 11:18:53;;;;;;;38.60;21.13;;;15.00;99.90;;;;;;5088440;28;20055;-66
2020/12/12 11:21:27;;;;;;;9.82;4.53;;;15.00;99.90;;;;;;5090278;28;20040;-64
2020/12/12 11:23:56;;;;;;;9.95;4.47;;;15.20;99.90;;;;;;5090246;28;20415;-65
2020/12/12 11:26:23;;;;;;;16.70;7.53;;;15.40;99.90;;;;;;5088978;28;20059;-66
2020/12/12 11:28:51;;;;;;;7.35;4.13;;;15.60;99.90;;;;;;5087921;28;20070;-66
2020/12/12 11:31:21;;;;;;;6.55;3.75;;;15.70;99.90;;;;;;5072454;28;20074;-65
2020/12/12 11:34:14;;;;;;;9.88;5.05;;;15.90;99.90;;;;;;5091956;28;20502;-65
2020/12/12 11:44:54;;;;;;;6.68;3.38;;;16.40;99.90;;;;;;5093066;28;20040;-66
2020/12/12 11:47:26;;;;;;;13.88;6.65;;;16.50;99.90;;;;;;5093585;28;20445;-65
2020/12/12 11:49:54;;;;;;;14.55;5.90;;;16.60;99.90;;;;;;5092872;28;20079;-65
2020/12/12 11:52:22;;;;;;;19.02;10.05;;;16.60;99.90;;;;;;5092337;28;20519;-65
2020/12/12 11:54:49;;;;;;;13.05;7.43;;;16.60;99.90;;;;;;5072679;28;20076;-65
2020/12/12 11:57:17;;;;;;;15.63;7.05;;;16.70;99.90;;;;;;5093551;28;20418;-66
2020/12/12 11:59:45;;;;;;;16.50;8.52;;;16.70;99.90;;;;;;5092965;28;20051;-65
2020/12/12 12:02:13;;;;;;;5.90;3.83;;;16.70;99.90;;;;;;5073273;28;20072;-63
2020/12/12 12:04:41;;;;;;;7.20;4.40;;;16.60;99.90;;;;;;5093619;28;20422;-65
2020/12/12 12:07:08;;;;;;;7.72;5.10;;;16.60;99.90;;;;;;5091781;28;20510;-66
2020/12/12 12:09:40;;;;;;;12.98;5.90;;;16.70;99.90;;;;;;5091469;28;20048;-65
2020/12/12 12:12:09;;;;;;;5.93;3.05;;;16.70;99.90;;;;;;5092133;28;20044;-65
2020/12/12 12:14:36;;;;;;;5.38;3.00;;;16.80;99.90;;;;;;5093653;28;20051;-66
2020/12/12 12:17:04;;;;;;;6.05;3.58;;;16.80;99.90;;;;;;5093203;28;20044;-63
2020/12/12 12:19:31;;;;;;;4.38;3.00;;;16.80;99.90;;;;;;5092959;28;20507;-65
2020/12/12 12:21:59;;;;;;;5.63;2.05;;;16.70;99.90;;;;;;5071774;28;20597;-66
2020/12/12 12:24:26;;;;;;;7.95;3.92;;;16.70;99.90;;;;;;5092658;28;20048;-65
2020/12/12 12:26:54;;;;;;;17.90;10.75;;;16.70;99.90;;;;;;5092205;28;20032;-65
2020/12/12 12:29:21;;;;;;;74.47;43.10;;;16.70;99.90;;;;;;5074671;28;20052;-65
2020/12/12 12:31:49;;;;;;;31.10;19.63;;;16.70;99.90;;;;;;5091649;28;20058;-65
2020/12/12 12:34:17;;;;;;;111.40;61.50;;;16.80;99.90;;;;;;5073640;28;20044;-66
2020/12/12 12:36:45;;;;;;;23.20;15.00;;;16.80;99.90;;;;;;5092418;28;20055;-66
2020/12/12 12:39:12;;;;;;;109.78;65.10;;;16.90;99.90;;;;;;5092152;28;20048;-66
2020/12/12 12:41:40;;;;;;;47.47;24.23;;;16.90;99.90;;;;;;5091651;28;20109;-65
2020/12/12 12:44:08;;;;;;;15.55;9.05;;;16.90;99.90;;;;;;5072793;28;20506;-65
2020/12/12 12:46:39;;;;;;;10.30;4.90;;;16.90;99.90;;;;;;5091723;28;20086;-66
2020/12/12 12:49:07;;;;;;;7.30;4.68;;;16.80;99.90;;;;;;5090845;28;20064;-66
2020/12/12 12:51:34;;;;;;;11.15;5.85;;;16.80;99.90;;;;;;5091857;28;20062;-65
2020/12/12 12:54:02;;;;;;;10.60;6.60;;;16.60;99.90;;;;;;5088900;28;20074;-63
2020/12/12 12:56:31;;;;;;;7.55;4.20;;;16.60;99.90;;;;;;5091200;28;20048;-65
2020/12/12 12:58:58;;;;;;;8.15;3.80;;;16.60;99.90;;;;;;5092186;28;20070;-64
2020/12/12 13:01:26;;;;;;;9.80;4.30;;;16.60;99.90;;;;;;5092432;28;20052;-65
2020/12/12 13:03:54;;;;;;;7.90;3.72;;;16.60;99.90;;;;;;5091427;28;20499;-65